Kezdőlap
METAR-TAF:

METAR-TAF

Repülőterek :

Hagåtña, Guam, Amerikai Egyesült Államok

földrajzi szélesség: 13-29N, földrajzi hosszúság: 144-48E, magasság: 91 m

Jelenlegi meteorológiai megfigyelések

A jelentés 46 perccel ezelõtt készült, 09:54 UTC
Keleti szél 3 kt
Hőmérséklet 29°C
Páratartalom 89%
Légköri nyomás 1011 hPa
Látótávolság: 16.1 km
Kevés felhő 1700 lábon

METAR: PGUM 250954Z 09003KT 10SM FEW017 29/27 A2986 RMK AO2 SLP104 T02890267 $

Idő: 20:40 (10:40 UTC)

Előrejelzés

A jelentés 5 órával és 14 perccel ezelõtt készült, 05:26 UTC
Az előrejelzés 25-én 06 óra UTC és 26-én 12 óra UTC között érvényes
Keleti szél 10 kt
Látótávolság: 10 km
Kevés felhő 1800 lábon
Szórványos felhőzet 2500 lábon
Záporok a közelben
25-én 0900 órától UTC szerint
Különbözõ irányokból fújó szél 6 kt
Látótávolság: 10 km
Szórványos felhőzet 2000 lábon

TAF: PGUM 250526Z 2506/2612 09010KT P6SM VCSH FEW018 SCT025 FM250900 VRB06KT P6SM SCT020

Meteorológiai megfigyelések és előrejelzések több, mint 4000 repülőtéren (METAR és TAF jelentéseket).

A térképen piros és sárga pontok jelzik az elérhető meteorológiai állomásokat.

Mozgassa az egeret a pont fölött, hogy megjelenjen az állomás neve.

Azután kattintson az időjárási megfigyelések és előrejelzések megtekintéséhez.

A térkép megváltoztatása: kattintson a fekete keresztel jelölt zöld gombra ráközelítéshez, a vonallal jelölt zöld gombra távolításhoz, vagy a zöld nyilakra a szomszédos térképek eléréséhez.


METAR-TAF: